createdAt,value
2022-09-29T00:02:52.315Z,90.0
2022-09-29T00:16:52.300Z,91.0
2022-09-29T00:30:52.320Z,92.0
2022-09-29T00:44:52.352Z,92.0
2022-09-29T00:58:52.368Z,92.0
2022-09-29T01:12:52.384Z,93.0
2022-09-29T01:26:52.384Z,93.0
2022-09-29T01:40:52.551Z,94.0
2022-09-29T01:54:52.497Z,94.0
2022-09-29T02:08:52.539Z,95.0
2022-09-29T02:22:52.552Z,95.0
2022-09-29T02:36:52.557Z,95.0
2022-09-29T02:50:52.571Z,96.0
2022-09-29T03:04:52.651Z,96.0
2022-09-29T03:18:52.674Z,97.0
2022-09-29T03:32:52.761Z,96.0
2022-09-29T03:46:52.804Z,96.0
2022-09-29T04:00:52.930Z,96.0
2022-09-29T04:14:52.906Z,96.0
2022-09-29T04:28:52.881Z,96.0
2022-09-29T04:42:52.910Z,97.0
2022-09-29T04:56:52.897Z,97.0
2022-09-29T05:11:52.913Z,97.0
2022-09-29T05:26:56.178Z,97.0
2022-09-29T05:42:52.941Z,97.0
2022-09-29T05:57:53.005Z,98.0
2022-09-29T06:13:53.007Z,97.0
2022-09-29T06:28:53.013Z,97.0
2022-09-29T06:43:53.031Z,95.0
2022-09-29T06:58:53.111Z,93.0
2022-09-29T07:13:54.602Z,90.0
2022-09-29T07:28:53.121Z,91.0
2022-09-29T07:43:53.142Z,92.0
2022-09-29T07:58:53.149Z,93.0
2022-09-29T08:13:53.151Z,95.0
2022-09-29T08:29:53.272Z,96.0
2022-09-29T08:44:53.394Z,97.0
2022-09-29T09:00:53.339Z,97.0
2022-09-29T09:16:53.359Z,98.0
2022-09-29T09:31:53.312Z,98.0
2022-09-29T09:46:53.316Z,98.0
2022-09-29T10:01:53.324Z,98.0
2022-09-29T10:16:53.321Z,98.0
2022-09-29T10:31:53.328Z,97.0
2022-09-29T10:44:31.556Z,97.0
2022-09-29T10:59:32.281Z,97.0
2022-09-29T11:14:31.663Z,96.0
2022-09-29T11:29:32.718Z,90.0
2022-09-29T11:44:31.758Z,83.0
2022-09-29T12:00:32.033Z,76.0
2022-09-29T12:15:32.707Z,76.0
2022-09-29T12:30:32.461Z,69.0
2022-09-29T12:45:35.110Z,67.0
2022-09-29T13:00:32.649Z,70.0
2022-09-29T13:16:32.678Z,71.0
2022-09-29T13:31:33.791Z,72.0
2022-09-29T13:46:32.915Z,71.0
2022-09-29T14:01:32.812Z,76.0
2022-09-29T14:20:47.746Z,79.0
2022-09-29T14:35:47.653Z,81.0
2022-09-29T14:50:47.826Z,83.0
2022-09-29T15:05:47.716Z,83.0
2022-09-29T15:20:47.725Z,88.0
2022-09-29T15:35:47.789Z,93.0
2022-09-29T15:50:47.860Z,95.0
2022-09-29T16:05:47.942Z,95.0
2022-09-29T16:20:48.042Z,96.0
2022-09-29T16:35:48.153Z,96.0
2022-09-29T16:50:48.221Z,96.0
2022-09-29T17:05:48.275Z,97.0
2022-09-29T17:20:48.358Z,97.0
2022-09-29T17:35:51.486Z,90.0
2022-09-29T17:49:48.538Z,89.0
2022-09-29T18:03:48.410Z,93.0
2022-09-29T18:17:48.463Z,95.0
2022-09-29T18:31:48.611Z,96.0
2022-09-29T18:45:48.512Z,97.0
2022-09-29T18:59:48.688Z,97.0
2022-09-29T19:13:48.735Z,97.0
2022-09-29T19:27:48.721Z,97.0
2022-09-29T19:41:48.721Z,98.0
2022-09-29T19:55:48.746Z,98.0
2022-09-29T20:09:48.849Z,98.0
2022-09-29T20:23:48.753Z,98.0
2022-09-29T20:37:48.812Z,98.0
2022-09-29T20:51:48.758Z,99.0
2022-09-29T21:05:48.771Z,99.0
2022-09-29T21:19:48.801Z,99.0
2022-09-29T21:33:48.812Z,99.0
2022-09-29T21:47:48.818Z,99.0
2022-09-29T22:01:48.981Z,99.0
2022-09-29T22:15:48.877Z,99.0
2022-09-29T22:29:48.842Z,99.0
2022-09-29T22:43:48.836Z,99.0
2022-09-29T22:57:48.940Z,99.0
2022-09-29T23:11:48.919Z,99.0
2022-09-29T23:25:48.924Z,99.0
2022-09-29T23:39:48.942Z,99.0
2022-09-29T23:53:48.947Z,99.0
